Time;durP1;ratioP1;P1;durP2;ratioP2;P2;SDS_P1;SDS_P2;PMS_P1;PMS_P2;Temp;Humidity;BMP_temperature;BMP_pressure;BME280_temperature;BME280_humidity;BME280_pressure;Samples;Min_cycle;Max_cycle;Signal;HPM_P1;HPM_P2
2021/12/05 00:19:38;;;;;;;15.95;6.38;;;;;;;1.34;100.00;99657.81;5050974;28;20075;-85
2021/12/05 00:22:13;;;;;;;20.15;6.07;;;;;;;1.30;100.00;99665.84;5049639;28;20060;-85
2021/12/05 00:24:44;;;;;;;20.38;7.20;;;;;;;1.31;100.00;99675.41;5049079;28;20307;-84
2021/12/05 00:27:20;;;;;;;16.45;6.78;;;;;;;1.26;100.00;99672.94;5049892;28;20037;-85
2021/12/05 00:32:46;;;;;;;23.98;7.20;;;;;;;1.14;100.00;99670.69;5049633;28;20465;-84
2021/12/05 00:39:05;;;;;;;26.88;7.97;;;;;;;1.08;100.00;99670.88;5030325;28;20376;-84
2021/12/05 00:40:54;;;;;;;26.00;7.63;;;;;;;1.02;100.00;99676.31;5022490;28;20505;-85
2021/12/05 00:46:14;;;;;;;22.52;8.20;;;;;;;0.91;100.00;99663.53;5040174;28;20064;-85
2021/12/05 01:07:22;;;;;;;21.98;5.55;;;;;;;0.73;100.00;99673.66;5033878;28;20088;-84
2021/12/05 01:12:49;;;;;;;22.55;5.72;;;;;;;0.67;100.00;99659.88;5049782;28;20083;-84
2021/12/05 01:15:20;;;;;;;24.98;6.50;;;;;;;0.70;100.00;99667.66;5047231;28;20035;-83
2021/12/05 01:20:18;;;;;;;14.60;5.43;;;;;;;0.71;100.00;99670.25;5030097;28;20030;-85
2021/12/05 01:22:51;;;;;;;17.60;5.03;;;;;;;0.71;100.00;99677.22;5039650;28;20428;-85
2021/12/05 01:25:31;;;;;;;19.17;5.15;;;;;;;0.70;100.00;99668.50;5045234;28;20029;-84
2021/12/05 01:28:20;;;;;;;14.85;5.68;;;;;;;0.72;100.00;99673.72;5043203;28;20116;-84
2021/12/05 01:30:56;;;;;;;17.63;5.30;;;;;;;0.65;100.00;99661.69;5049105;28;20021;-85
2021/12/05 01:33:36;;;;;;;22.55;5.47;;;;;;;0.57;100.00;99663.69;5030248;28;20043;-84
2021/12/05 01:36:11;;;;;;;13.75;5.28;;;;;;;0.52;100.00;99657.72;5034118;28;20037;-84
2021/12/05 01:52:28;;;;;;;17.30;5.43;;;;;;;0.41;100.00;99682.44;5044513;28;20184;-85
2021/12/05 02:00:37;;;;;;;19.95;4.72;;;;;;;0.56;100.00;99664.59;5048381;28;20114;-83
2021/12/05 02:16:44;;;;;;;16.40;4.50;;;;;;;0.54;100.00;99650.66;5048833;28;20059;-85
2021/12/05 02:30:45;;;;;;;19.10;4.93;;;;;;;0.54;100.00;99664.59;5036679;28;20068;-85
2021/12/05 02:33:22;;;;;;;17.58;5.07;;;;;;;0.55;100.00;99650.63;5046644;28;20032;-84
2021/12/05 02:36:20;;;;;;;13.68;4.70;;;;;;;0.62;100.00;99657.38;5029976;28;20208;-83
2021/12/05 02:41:22;;;;;;;13.80;4.68;;;;;;;0.59;100.00;99646.19;5047492;28;20041;-84
2021/12/05 02:43:56;;;;;;;16.48;5.00;;;;;;;0.63;100.00;99648.66;5040395;28;20021;-83
2021/12/05 02:46:23;;;;;;;16.17;5.05;;;;;;;0.61;100.00;99641.72;5037354;28;20065;-84
2021/12/05 02:48:49;;;;;;;16.00;5.13;;;;;;;0.66;100.00;99645.91;5043024;28;20100;-84
2021/12/05 02:51:20;;;;;;;14.43;4.78;;;;;;;0.64;100.00;99644.28;5047517;28;20116;-84
2021/12/05 02:53:54;;;;;;;16.90;4.80;;;;;;;0.63;100.00;99646.03;5044296;28;20039;-84
2021/12/05 02:56:21;;;;;;;14.85;4.45;;;;;;;0.59;100.00;99638.31;5045796;28;20113;-84
2021/12/05 02:58:52;;;;;;;16.27;5.03;;;;;;;0.62;100.00;99643.44;5048617;28;20029;-83
2021/12/05 03:01:38;;;;;;;16.67;4.95;;;;;;;0.69;100.00;99640.59;5039816;28;20029;-86
2021/12/05 03:04:05;;;;;;;18.42;4.82;;;;;;;0.69;100.00;99639.75;5037039;28;20079;-85
2021/12/05 03:06:33;;;;;;;11.00;4.18;;;;;;;0.67;100.00;99636.31;5029005;28;20490;-85
2021/12/05 03:09:03;;;;;;;15.63;4.47;;;;;;;0.69;100.00;99637.13;5043266;28;20028;-84
2021/12/05 03:11:29;;;;;;;9.68;4.38;;;;;;;0.77;100.00;99629.91;5026057;28;20426;-85
2021/12/05 03:13:55;;;;;;;16.25;4.55;;;;;;;0.81;100.00;99631.53;5030075;28;20041;-84
2021/12/05 03:16:22;;;;;;;14.73;4.82;;;;;;;0.90;100.00;99635.63;5040115;28;20045;-84
2021/12/05 03:18:47;;;;;;;13.90;4.97;;;;;;;0.89;100.00;99619.06;5048224;28;20032;-84
2021/12/05 03:21:13;;;;;;;11.40;5.00;;;;;;;1.04;100.00;99632.56;5034800;28;20029;-84
2021/12/05 03:23:42;;;;;;;16.20;5.45;;;;;;;1.21;100.00;99628.53;5030310;28;20391;-84
2021/12/05 03:26:10;;;;;;;15.20;5.32;;;;;;;1.27;100.00;99634.47;5038428;28;20417;-85
2021/12/05 03:28:36;;;;;;;12.70;5.00;;;;;;;1.24;100.00;99619.69;5047832;28;20033;-84
2021/12/05 03:31:03;;;;;;;14.35;5.57;;;;;;;1.33;100.00;99626.41;5027385;28;20454;-83
2021/12/05 03:33:29;;;;;;;14.07;5.45;;;;;;;1.33;100.00;99623.78;5039545;28;20037;-84
2021/12/05 03:35:54;;;;;;;11.05;5.15;;;;;;;1.33;100.00;99619.38;5027734;28;20120;-83
2021/12/05 03:38:19;;;;;;;13.73;5.20;;;;;;;1.35;100.00;99628.06;5011250;28;20376;-83
2021/12/05 03:40:46;;;;;;;11.65;5.15;;;;;;;1.31;100.00;99621.22;5033793;28;20482;-84
2021/12/05 03:43:15;;;;;;;10.75;5.10;;;;;;;1.26;100.00;99609.19;5029946;28;20079;-85
2021/12/05 03:45:45;;;;;;;14.30;5.95;;;;;;;1.40;100.00;99628.78;5027896;28;20098;-85
2021/12/05 03:48:13;;;;;;;15.07;5.30;;;;;;;1.37;100.00;99626.25;5038116;28;20029;-85
2021/12/05 03:50:40;;;;;;;12.13;5.43;;;;;;;1.35;100.00;99635.09;5043909;28;20033;-84
2021/12/05 03:53:06;;;;;;;13.80;5.90;;;;;;;1.38;100.00;99627.97;5015494;28;20493;-85
2021/12/05 03:55:32;;;;;;;10.85;5.72;;;;;;;1.39;100.00;99629.69;5041440;28;20026;-84
2021/12/05 03:57:57;;;;;;;8.93;5.10;;;;;;;1.44;100.00;99633.00;5035297;28;20028;-84
2021/12/05 04:00:29;;;;;;;10.20;5.60;;;;;;;1.47;100.00;99638.16;5046374;28;20017;-84
2021/12/05 04:03:00;;;;;;;15.25;6.55;;;;;;;1.51;100.00;99638.06;5036068;28;20032;-84
2021/12/05 04:05:26;;;;;;;9.63;5.60;;;;;;;1.51;100.00;99633.69;5046833;28;20044;-83
2021/12/05 04:07:52;;;;;;;11.48;5.32;;;;;;;1.57;100.00;99638.72;5035988;28;20033;-84
2021/12/05 04:10:18;;;;;;;8.77;5.38;;;;;;;1.62;100.00;99631.53;5030008;28;20025;-85
2021/12/05 04:12:45;;;;;;;14.05;5.80;;;;;;;1.66;100.00;99632.28;5044605;28;20029;-84
2021/12/05 04:15:12;;;;;;;14.93;5.68;;;;;;;1.68;100.00;99630.50;5042411;28;20040;-84
2021/12/05 04:17:39;;;;;;;12.63;5.30;;;;;;;1.70;100.00;99634.75;5027907;28;20437;-84
2021/12/05 04:20:06;;;;;;;9.52;4.97;;;;;;;1.67;100.00;99631.38;5039831;28;20533;-84
2021/12/05 04:22:32;;;;;;;7.90;5.07;;;;;;;1.70;100.00;99624.25;5030535;28;20108;-84
2021/12/05 04:24:58;;;;;;;15.52;5.22;;;;;;;1.72;100.00;99646.06;5027273;28;20141;-84
2021/12/05 04:27:23;;;;;;;13.25;5.32;;;;;;;1.72;100.00;99639.97;5027368;28;20032;-86
2021/12/05 04:29:48;;;;;;;13.40;5.43;;;;;;;1.72;100.00;99632.09;5031834;28;20100;-84
2021/12/05 04:32:14;;;;;;;10.70;5.22;;;;;;;1.72;100.00;99638.19;5031968;28;20073;-84
2021/12/05 04:34:39;;;;;;;8.77;4.68;;;;;;;1.71;100.00;99638.22;5028160;28;20036;-85
2021/12/05 04:37:04;;;;;;;11.88;5.00;;;;;;;1.70;100.00;99623.41;5042396;28;20116;-84
2021/12/05 04:39:31;;;;;;;10.07;4.93;;;;;;;1.80;100.00;99645.81;5047292;28;20033;-84
2021/12/05 04:41:58;;;;;;;12.65;4.85;;;;;;;1.60;100.00;99609.75;5048912;28;20110;-84
2021/12/05 04:44:24;;;;;;;10.32;4.47;;;;;;;1.81;100.00;99641.44;5034749;28;20424;-84
2021/12/05 04:46:51;;;;;;;10.70;4.35;;;;;;;1.83;100.00;99643.06;5038042;28;20057;-83
2021/12/05 04:49:16;;;;;;;8.52;4.65;;;;;;;1.82;100.00;99641.34;5049997;28;20036;-84
2021/12/05 04:51:44;;;;;;;8.57;4.47;;;;;;;1.81;100.00;99634.41;5049961;28;20041;-84
2021/12/05 04:54:14;;;;;;;11.63;4.25;;;;;;;1.85;100.00;99638.63;5048083;28;20098;-83
2021/12/05 04:56:41;;;;;;;10.10;4.72;;;;;;;1.83;100.00;99632.56;5050976;28;20033;-84
2021/12/05 04:59:13;;;;;;;9.82;4.72;;;;;;;1.84;100.00;99631.69;5040225;28;20022;-83
2021/12/05 05:01:40;;;;;;;10.20;4.28;;;;;;;1.87;100.00;99641.19;5041497;28;20115;-83
2021/12/05 05:04:12;;;;;;;9.88;4.18;;;;;;;1.84;100.00;99629.06;5042662;28;20033;-83
2021/12/05 05:06:38;;;;;;;7.32;4.50;;;;;;;1.85;100.00;99622.91;5044184;28;20040;-84
2021/12/05 05:09:04;;;;;;;11.25;4.53;;;;;;;1.85;100.00;99628.16;5038837;28;20028;-85
2021/12/05 05:11:29;;;;;;;12.73;4.38;;;;;;;1.90;100.00;99625.34;5031895;28;20049;-85
2021/12/05 05:13:54;;;;;;;9.50;4.28;;;;;;;1.94;100.00;99629.59;5033422;28;20150;-84
2021/12/05 05:16:22;;;;;;;7.75;4.32;;;;;;;1.83;100.00;99623.84;5030328;28;20461;-84
2021/12/05 05:18:53;;;;;;;10.15;4.55;;;;;;;1.87;100.00;99634.19;5030439;28;20025;-84
2021/12/05 05:24:30;;;;;;;8.40;4.15;;;;;;;1.82;100.00;99643.97;5032006;28;20120;-83
2021/12/05 05:27:21;;;;;;;8.82;4.78;;;;;;;1.79;100.00;99654.56;5029816;28;20072;-83
2021/12/05 05:51:17;;;;;;;5.60;4.30;;;;;;;1.44;100.00;99661.84;4947204;28;20035;-87
2021/12/05 05:53:45;;;;;;;6.85;4.70;;;;;;;1.39;100.00;99671.63;4946378;29;20046;-87
2021/12/05 05:56:16;;;;;;;7.53;5.57;;;;;;;1.41;100.00;99663.72;4947938;29;20039;-88
2021/12/05 05:58:46;;;;;;;7.22;4.90;;;;;;;1.39;100.00;99670.78;4948995;29;20038;-86
2021/12/05 06:01:40;;;;;;;8.35;4.57;;;;;;;1.32;100.00;99661.41;4947965;29;20118;-87
2021/12/05 06:03:57;;;;;;;7.88;4.75;;;;;;;1.35;100.00;99664.78;4947578;28;20424;-87
2021/12/05 06:06:22;;;;;;;7.03;4.50;;;;;;;1.34;100.00;99678.81;4948126;28;20042;-87
2021/12/05 06:08:48;;;;;;;8.10;4.95;;;;;;;1.30;100.00;99664.06;4947809;29;20504;-86
2021/12/05 06:11:15;;;;;;;6.03;3.78;;;;;;;1.28;100.00;99670.25;4947233;28;20027;-87
2021/12/05 06:13:41;;;;;;;8.60;4.30;;;;;;;1.29;100.00;99680.69;4948421;28;20469;-87
2021/12/05 06:16:08;;;;;;;8.27;4.30;;;;;;;1.24;100.00;99677.34;4948129;29;20122;-87
2021/12/05 06:18:34;;;;;;;6.72;4.88;;;;;;;1.31;100.00;99684.13;4948798;29;20066;-86
2021/12/05 06:21:00;;;;;;;7.75;4.38;;;;;;;1.29;100.00;99688.56;4938649;28;20195;-86
2021/12/05 06:23:25;;;;;;;6.55;4.43;;;;;;;1.25;100.00;99681.69;5030911;28;20517;-86
2021/12/05 06:25:52;;;;;;;4.85;4.00;;;;;;;1.21;100.00;99682.69;5031105;28;20322;-86
2021/12/05 06:28:28;;;;;;;8.50;4.85;;;;;;;1.28;100.00;99699.09;5049164;28;20045;-86
2021/12/05 06:46:55;;;;;;;;;;;;;;;1.35;100.00;99706.72;5036507;28;20106;-85
2021/12/05 06:49:20;;;;;;;8.15;4.68;;;;;;;1.33;100.00;99713.75;5047606;28;20262;-85
2021/12/05 06:51:46;;;;;;;7.43;4.65;;;;;;;1.36;100.00;99712.81;5040951;28;20023;-85
2021/12/05 06:54:11;;;;;;;6.38;4.95;;;;;;;1.35;100.00;99713.75;5032096;28;20532;-85
2021/12/05 06:56:36;;;;;;;8.27;4.85;;;;;;;1.31;100.00;99712.13;5045857;28;20027;-85
2021/12/05 06:59:02;;;;;;;7.38;4.78;;;;;;;1.38;100.00;99722.38;5041264;28;20052;-85
2021/12/05 07:01:28;;;;;;;7.05;5.00;;;;;;;1.33;100.00;99708.53;5043903;28;20040;-85
2021/12/05 07:03:53;;;;;;;9.75;5.70;;;;;;;1.40;100.00;99730.19;5037468;28;20029;-85
2021/12/05 07:06:22;;;;;;;6.97;5.30;;;;;;;1.39;100.00;99729.31;5043870;28;20025;-85
2021/12/05 07:08:49;;;;;;;8.95;5.47;;;;;;;1.39;100.00;99731.94;5039240;28;20034;-85
2021/12/05 07:11:26;;;;;;;7.50;6.05;;;;;;;1.41;100.00;99742.38;5034980;28;20029;-85
2021/12/05 07:16:50;;;;;;;9.23;6.60;;;;;;;1.40;100.00;99740.66;5028858;28;20040;-85
2021/12/05 07:21:59;;;;;;;9.77;6.30;;;;;;;1.42;100.00;99750.22;5033517;28;20120;-85
2021/12/05 07:40:18;;;;;;;9.65;6.32;;;;;;;1.47;100.00;99757.94;5028234;28;20033;-85
2021/12/05 07:40:45;;;;;;;7.57;6.50;;;;;;;1.51;100.00;99770.03;5045603;28;20103;-85
2021/12/05 07:43:12;;;;;;;9.80;6.63;;;;;;;1.52;100.00;99769.13;5041136;28;20029;-84
2021/12/05 07:45:48;;;;;;;10.85;6.50;;;;;;;1.48;100.00;99768.38;5039761;28;20025;-84
2021/12/05 07:48:19;;;;;;;9.70;6.60;;;;;;;1.54;100.00;99779.56;5045552;28;20414;-85
2021/12/05 07:51:07;;;;;;;11.07;6.95;;;;;;;1.56;100.00;99783.00;5046131;28;20095;-85
2021/12/05 07:53:43;;;;;;;9.50;6.47;;;;;;;1.47;100.00;99769.28;5022216;28;20037;-85
2021/12/05 07:56:18;;;;;;;8.02;6.57;;;;;;;1.44;100.00;99763.25;5035765;28;20249;-84
2021/12/05 07:59:13;;;;;;;11.10;7.35;;;;;;;1.60;100.00;99793.34;5035459;28;20110;-85
2021/12/05 08:15:14;;;;;;;10.18;5.90;;;;;;;1.69;100.00;99815.81;5027511;28;20434;-84
2021/12/05 08:17:40;;;;;;;7.15;5.80;;;;;;;1.62;100.00;99798.53;5031631;28;20026;-83
2021/12/05 08:20:09;;;;;;;7.63;6.15;;;;;;;1.71;100.00;99819.22;5050501;28;20412;-84
2021/12/05 08:22:34;;;;;;;10.60;5.82;;;;;;;1.73;100.00;99812.19;5037810;28;20049;-84
2021/12/05 08:25:09;;;;;;;8.57;6.70;;;;;;;1.73;100.00;99817.44;5034760;28;20406;-84
2021/12/05 08:27:34;;;;;;;10.07;6.32;;;;;;;1.75;100.00;99826.97;5032883;28;20467;-85
2021/12/05 08:30:07;;;;;;;10.35;6.78;;;;;;;1.76;100.00;99827.84;5048884;28;20036;-86
2021/12/05 08:32:47;;;;;;;11.18;6.55;;;;;;;1.73;100.00;99827.94;5038502;28;20033;-84
2021/12/05 08:43:42;;;;;;;10.98;6.22;;;;;;;1.81;100.00;99825.06;5033169;28;20033;-87
2021/12/05 09:40:13;;;;;;;10.82;7.82;;;;;;;2.05;100.00;99918.78;5040317;28;20036;-84
2021/12/05 10:01:43;;;;;;;10.75;7.30;;;;;;;2.17;100.00;99933.28;5047872;28;19923;-87
2021/12/05 10:02:23;;;;;;;10.13;7.10;;;;;;;2.17;100.00;99930.66;5047524;28;20039;-88
2021/12/05 10:15:22;;;;;;;10.32;7.13;;;;;;;2.35;100.00;99953.72;5029845;28;20467;-83
2021/12/05 10:18:44;;;;;;;12.38;7.88;;;;;;;2.39;100.00;99949.25;5042273;28;20141;-84
2021/12/05 10:27:25;;;;;;;7.38;6.40;;;;;;;2.47;100.00;99971.72;5031822;28;20048;-84
2021/12/05 10:38:35;;;;;;;7.68;5.30;;;;;;;2.47;100.00;99979.63;5048493;28;20047;-86
2021/12/05 10:43:41;;;;;;;5.85;5.28;;;;;;;2.41;100.00;99974.53;5034752;28;20041;-85
2021/12/05 10:46:16;;;;;;;7.00;5.78;;;;;;;2.47;100.00;99978.75;5047503;28;20493;-86
2021/12/05 10:48:46;;;;;;;7.05;5.50;;;;;;;2.49;100.00;99976.94;5029406;28;20056;-85
2021/12/05 10:51:27;;;;;;;8.00;5.15;;;;;;;2.52;100.00;99975.97;5027619;28;20091;-85
2021/12/05 10:54:04;;;;;;;6.30;5.70;;;;;;;2.65;100.00;99983.41;5030372;28;20054;-83
2021/12/05 10:56:35;;;;;;;7.50;5.60;;;;;;;2.66;100.00;99986.91;5047961;28;20036;-85
2021/12/05 10:59:00;;;;;;;7.43;6.05;;;;;;;2.70;100.00;99986.75;5045845;28;20029;-86
2021/12/05 11:01:41;;;;;;;7.95;6.38;;;;;;;2.75;100.00;99999.72;5041505;28;20032;-85
2021/12/05 11:04:20;;;;;;;6.75;6.05;;;;;;;2.68;100.00;99988.56;5048229;28;20047;-85
2021/12/05 11:06:52;;;;;;;7.18;6.10;;;;;;;2.69;100.00;99990.28;5043206;28;20462;-85
2021/12/05 11:09:20;;;;;;;6.67;5.40;;;;;;;2.72;100.00;99995.44;5029109;28;20086;-87
2021/12/05 11:11:50;;;;;;;6.03;5.40;;;;;;;2.78;100.00;99985.66;5033127;28;20036;-86
2021/12/05 11:14:19;;;;;;;6.53;5.60;;;;;;;2.82;100.00;99987.25;5029088;28;20037;-87
2021/12/05 11:17:14;;;;;;;5.78;5.18;;;;;;;2.86;100.00;99987.09;5037082;28;20052;-85
2021/12/05 11:19:46;;;;;;;5.68;4.45;;;;;;;2.88;100.00;99984.41;5043819;28;20401;-86
2021/12/05 11:22:27;;;;;;;4.88;4.13;;;;;;;2.93;100.00;99991.25;5032514;28;20025;-86
2021/12/05 11:24:54;;;;;;;5.45;4.80;;;;;;;3.01;100.00;99996.28;5029117;28;20057;-86
2021/12/05 11:27:33;;;;;;;5.60;4.05;;;;;;;3.00;100.00;99984.00;5026045;28;20029;-87
2021/12/05 11:30:10;;;;;;;4.60;4.20;;;;;;;3.02;100.00;99994.50;5046994;28;20086;-85
2021/12/05 11:32:40;;;;;;;4.97;4.38;;;;;;;3.08;100.00;99992.50;5046510;28;20140;-85
2021/12/05 11:35:27;;;;;;;10.32;5.35;;;;;;;3.17;100.00;100001.84;5048320;28;20028;-89
2021/12/05 11:38:09;;;;;;;7.20;5.15;;;;;;;3.21;100.00;100001.69;5048040;28;20577;-83
2021/12/05 11:41:07;;;;;;;8.05;5.85;;;;;;;3.38;100.00;100011.63;5035038;28;20063;-91
2021/12/05 11:43:35;;;;;;;5.30;4.80;;;;;;;3.41;100.00;99993.13;5037330;28;20116;-89
2021/12/05 11:46:06;;;;;;;5.78;4.97;;;;;;;3.59;100.00;100010.03;5017674;28;20030;-88
2021/12/05 11:48:56;;;;;;;5.70;5.10;;;;;;;3.68;100.00;100012.34;5028212;28;20083;-89
2021/12/05 11:51:31;;;;;;;6.22;5.03;;;;;;;3.64;100.00;100017.78;5032862;28;20363;-87
2021/12/05 11:54:05;;;;;;;5.07;4.57;;;;;;;3.54;100.00;100011.09;5051972;28;20086;-87
2021/12/05 11:56:30;;;;;;;4.90;4.40;;;;;;;3.52;100.00;100021.69;5052035;28;20017;-88
2021/12/05 11:59:24;;;;;;;4.57;4.05;;;;;;;3.62;100.00;100025.72;5017594;28;20501;-86
2021/12/05 12:01:55;;;;;;;4.55;4.15;;;;;;;3.79;100.00;100032.16;5004769;28;20044;-87
2021/12/05 12:04:26;;;;;;;7.75;6.05;;;;;;;3.99;99.41;100034.91;5052077;28;20479;-88
2021/12/05 12:07:28;;;;;;;5.93;4.78;;;;;;;4.16;98.52;100037.78;5033193;28;20052;-89
2021/12/05 12:10:08;;;;;;;4.05;3.65;;;;;;;4.09;97.15;100038.06;5043779;28;20033;-85
2021/12/05 12:12:34;;;;;;;4.70;4.30;;;;;;;3.97;96.32;100040.25;5049016;28;20124;-88
2021/12/05 12:15:00;;;;;;;5.22;4.70;;;;;;;3.81;96.36;100038.22;5038217;28;20410;-87
2021/12/05 12:17:26;;;;;;;4.35;4.00;;;;;;;3.69;97.31;100037.75;5029105;28;20026;-87
2021/12/05 12:19:54;;;;;;;5.97;3.92;;;;;;;3.64;97.72;100041.47;5038497;28;20021;-87
2021/12/05 12:22:21;;;;;;;4.40;4.00;;;;;;;3.60;97.48;100045.13;5053556;28;20111;-88
2021/12/05 12:24:57;;;;;;;4.80;4.35;;;;;;;3.58;97.72;100050.41;5051463;28;20393;-88
2021/12/05 12:27:23;;;;;;;5.32;4.43;;;;;;;3.59;98.52;100054.75;5050740;28;20032;-88
2021/12/05 12:29:52;;;;;;;5.07;4.57;;;;;;;3.63;98.41;100051.09;5040461;28;20486;-89
2021/12/05 12:32:27;;;;;;;5.10;4.60;;;;;;;3.56;97.36;100051.41;5043312;28;20031;-92
2021/12/05 12:34:58;;;;;;;5.68;3.97;;;;;;;3.45;98.44;100039.44;5051187;28;20122;-91
2021/12/05 12:37:24;;;;;;;5.07;4.57;;;;;;;3.43;98.14;100045.69;5033751;28;20040;-87
2021/12/05 12:39:51;;;;;;;5.10;4.55;;;;;;;3.42;98.20;100046.59;5050041;28;20032;-83
2021/12/05 12:42:25;;;;;;;5.88;4.82;;;;;;;3.50;99.18;100063.81;5050678;28;20025;-91
2021/12/05 12:45:12;;;;;;;5.40;4.65;;;;;;;3.53;98.72;100062.88;5051120;28;20429;-87
2021/12/05 12:47:54;;;;;;;5.20;4.55;;;;;;;3.52;98.73;100063.78;5051715;28;20025;-89
2021/12/05 12:50:33;;;;;;;5.70;5.03;;;;;;;3.49;97.70;100062.13;5049321;28;20048;-96
2021/12/05 12:53:05;;;;;;;6.47;5.28;;;;;;;3.45;98.15;100064.91;5051043;28;20021;-88
2021/12/05 12:55:35;;;;;;;5.82;5.32;;;;;;;3.45;98.14;100064.91;5045369;28;20144;-88
2021/12/05 12:58:05;;;;;;;6.90;5.07;;;;;;;3.48;97.75;100075.34;5040626;28;20033;-88
2021/12/05 13:00:33;;;;;;;5.65;5.10;;;;;;;3.47;97.80;100078.88;5033436;28;20398;-86
2021/12/05 13:03:14;;;;;;;6.22;4.97;;;;;;;3.43;97.22;100072.00;5044351;28;20029;-87
2021/12/05 13:11:05;;;;;;;7.85;5.50;;;;;;;3.47;96.71;100078.88;5041859;28;20510;-87
2021/12/05 13:13:32;;;;;;;6.83;5.67;;;;;;;3.44;96.61;100085.09;5040514;28;20374;-86
2021/12/05 13:16:19;;;;;;;6.43;5.70;;;;;;;3.42;97.10;100097.44;5032028;28;20029;-89
2021/12/05 13:18:56;;;;;;;6.65;5.40;;;;;;;3.40;97.08;100099.25;5032473;28;20480;-86
2021/12/05 13:21:35;;;;;;;8.13;6.00;;;;;;;3.43;97.66;100109.69;5050204;28;20059;-86
2021/12/05 13:24:17;;;;;;;8.57;6.28;;;;;;;3.42;97.96;100097.44;5026582;28;20319;-86
2021/12/05 13:26:43;;;;;;;7.07;6.00;;;;;;;3.39;97.93;100101.97;5038232;28;20074;-87
2021/12/05 13:29:17;;;;;;;6.47;5.75;;;;;;;3.36;97.02;100100.28;5044125;28;20068;-86
2021/12/05 13:32:07;;;;;;;7.13;5.55;;;;;;;3.32;97.72;100096.03;5050889;28;20439;-85
2021/12/05 13:34:46;;;;;;;6.70;5.72;;;;;;;3.27;97.40;100111.09;5017492;28;20049;-86
2021/12/05 13:37:13;;;;;;;7.30;5.72;;;;;;;3.30;97.56;100118.88;5031260;28;20071;-86
2021/12/05 13:39:53;;;;;;;7.43;6.03;;;;;;;3.27;97.51;100128.66;5036823;28;20026;-87
2021/12/05 13:42:36;;;;;;;6.10;5.15;;;;;;;3.24;97.37;100129.59;5049469;28;20021;-85
2021/12/05 13:45:09;;;;;;;7.68;6.18;;;;;;;3.17;97.09;100128.94;5048340;28;20024;-86
2021/12/05 13:48:05;;;;;;;7.70;6.50;;;;;;;3.23;98.07;100135.78;5031299;28;20100;-86
2021/12/05 13:50:41;;;;;;;9.63;7.18;;;;;;;3.18;97.18;100137.72;5046249;28;20033;-86
2021/12/05 13:53:06;;;;;;;7.43;6.22;;;;;;;3.21;97.25;100150.72;5049098;28;20028;-87
2021/12/05 13:55:49;;;;;;;8.48;6.60;;;;;;;3.20;97.39;100149.03;5046979;28;20040;-86
2021/12/05 13:58:32;;;;;;;9.02;6.78;;;;;;;3.18;97.44;100148.22;5050973;28;20021;-86
2021/12/05 14:01:04;;;;;;;8.05;6.35;;;;;;;3.22;96.87;100144.59;5039966;28;20029;-86
2021/12/05 14:03:53;;;;;;;9.10;7.38;;;;;;;3.25;97.50;100152.34;5031784;28;20420;-85
2021/12/05 14:06:40;;;;;;;10.75;8.63;;;;;;;3.27;97.15;100153.19;5049063;28;20033;-85
2021/12/05 14:09:19;;;;;;;10.52;8.05;;;;;;;3.20;96.43;100154.28;5047037;28;20040;-85
2021/12/05 14:11:56;;;;;;;9.05;7.38;;;;;;;3.20;96.30;100164.78;5029714;28;20483;-85
2021/12/05 14:14:35;;;;;;;9.23;6.95;;;;;;;3.20;96.95;100172.69;5044894;28;20330;-85
2021/12/05 14:17:07;;;;;;;8.52;6.38;;;;;;;3.09;96.23;100162.50;5048938;28;20032;-86
2021/12/05 14:19:35;;;;;;;6.80;6.10;;;;;;;3.14;96.09;100181.63;5047366;28;20029;-86
2021/12/05 14:22:04;;;;;;;8.88;7.35;;;;;;;3.11;96.30;100178.25;5048900;28;20033;-86
2021/12/05 14:24:33;;;;;;;7.45;6.30;;;;;;;3.08;95.91;100183.59;5048471;28;20044;-86
2021/12/05 14:27:04;;;;;;;9.07;7.45;;;;;;;3.04;96.20;100189.84;5048989;28;20029;-86
2021/12/05 14:29:33;;;;;;;9.95;8.25;;;;;;;3.00;96.37;100184.66;5036225;28;20544;-84
2021/12/05 14:32:06;;;;;;;12.73;9.50;;;;;;;2.92;96.07;100185.81;5048769;28;20032;-85
2021/12/05 14:34:32;;;;;;;11.65;8.43;;;;;;;2.97;97.14;100202.31;5049304;28;20029;-86
2021/12/05 14:37:01;;;;;;;10.68;8.50;;;;;;;2.93;96.36;100206.81;5048637;28;20044;-84
2021/12/05 14:39:30;;;;;;;12.85;9.05;;;;;;;2.90;96.49;100213.91;5033940;28;20532;-85
2021/12/05 14:42:17;;;;;;;7.63;6.65;;;;;;;2.83;96.19;100207.13;5028890;28;20032;-85
2021/12/05 14:44:47;;;;;;;8.68;6.43;;;;;;;2.82;97.06;100222.03;5029378;28;20140;-86
2021/12/05 14:47:16;;;;;;;7.82;6.25;;;;;;;2.78;97.26;100215.13;5032198;28;20026;-86
2021/12/05 14:50:03;;;;;;;6.25;5.45;;;;;;;2.84;97.29;100224.59;5030885;28;20025;-86
2021/12/05 14:52:32;;;;;;;7.35;6.18;;;;;;;2.80;97.20;100230.84;5033533;28;20036;-86
2021/12/05 14:54:59;;;;;;;9.27;6.18;;;;;;;2.78;97.70;100230.91;5031067;28;20394;-86
2021/12/05 14:57:39;;;;;;;7.13;5.38;;;;;;;2.80;97.83;100237.00;5041340;28;20033;-86
2021/12/05 15:00:10;;;;;;;8.57;7.00;;;;;;;2.77;97.83;100238.84;5028019;28;20041;-86
2021/12/05 15:02:36;;;;;;;10.75;6.78;;;;;;;2.75;98.19;100250.22;5028588;28;20032;-86
2021/12/05 15:05:03;;;;;;;8.32;5.85;;;;;;;2.67;98.15;100243.47;5035934;28;20021;-85
2021/12/05 15:07:28;;;;;;;7.00;6.28;;;;;;;2.74;98.65;100261.66;5047069;28;20029;-85
2021/12/05 15:09:57;;;;;;;8.23;6.10;;;;;;;2.68;98.92;100261.00;5029134;28;20033;-85
2021/12/05 15:12:31;;;;;;;9.60;6.40;;;;;;;2.71;99.02;100272.25;5028348;28;20446;-85
2021/12/05 15:14:58;;;;;;;;;;;;;;;2.76;99.49;100274.78;5028691;28;20107;-85
2021/12/05 15:17:35;;;;;;;8.13;6.32;;;;;;;2.71;99.30;100276.66;5029290;28;20250;-85
2021/12/05 15:20:09;;;;;;;6.97;6.22;;;;;;;2.67;99.49;100277.63;5041378;28;20060;-85
2021/12/05 15:22:36;;;;;;;8.10;6.53;;;;;;;2.67;100.00;100283.75;5047083;28;20049;-85
2021/12/05 15:25:06;;;;;;;8.85;6.72;;;;;;;2.63;100.00;100282.09;5047553;28;20028;-84
2021/12/05 15:27:32;;;;;;;10.07;7.65;;;;;;;2.67;99.97;100293.41;5046144;28;20422;-84
2021/12/05 15:30:02;;;;;;;10.18;8.05;;;;;;;2.65;100.00;100303.09;5028005;28;20083;-85
2021/12/05 15:32:31;;;;;;;10.32;7.63;;;;;;;2.62;100.00;100308.44;5028948;28;20053;-86
2021/12/05 15:35:03;;;;;;;8.13;7.07;;;;;;;2.56;100.00;100305.97;5029696;28;20025;-85
2021/12/05 15:37:29;;;;;;;9.35;7.45;;;;;;;2.60;100.00;100321.63;5045089;28;20114;-85
2021/12/05 15:39:56;;;;;;;10.43;7.60;;;;;;;2.58;100.00;100322.56;5038601;28;20470;-86
2021/12/05 15:42:25;;;;;;;12.05;8.35;;;;;;;2.55;100.00;100327.88;5047842;28;20368;-85
2021/12/05 15:44:53;;;;;;;9.35;7.72;;;;;;;2.57;100.00;100341.84;5047824;28;20453;-85
2021/12/05 15:47:26;;;;;;;9.25;6.68;;;;;;;2.56;100.00;100340.13;5046083;28;20078;-84
2021/12/05 15:49:54;;;;;;;7.97;6.50;;;;;;;2.57;100.00;100352.38;5010019;28;20494;-84
2021/12/05 15:52:23;;;;;;;9.93;6.80;;;;;;;2.57;100.00;100355.00;5030617;28;20487;-85
2021/12/05 15:54:49;;;;;;;10.05;8.27;;;;;;;2.59;100.00;100355.78;5031561;28;20039;-85
2021/12/05 15:57:24;;;;;;;12.52;9.15;;;;;;;2.54;100.00;100353.28;5046089;28;20025;-86
2021/12/05 15:59:49;;;;;;;13.88;10.55;;;;;;;2.59;100.00;100359.31;5047546;28;20052;-85
2021/12/05 16:02:18;;;;;;;14.38;10.32;;;;;;;2.61;100.00;100364.53;5029082;28;20430;-85
2021/12/05 16:04:45;;;;;;;14.93;11.32;;;;;;;2.62;100.00;100363.59;5027827;28;20475;-86
2021/12/05 16:07:11;;;;;;;16.77;10.70;;;;;;;2.62;100.00;100369.72;5029380;28;20041;-88
2021/12/05 16:09:41;;;;;;;14.48;10.75;;;;;;;2.63;100.00;100373.22;5023627;28;20081;-89
2021/12/05 16:12:18;;;;;;;13.02;10.02;;;;;;;2.56;100.00;100361.16;5045489;28;20025;-84
2021/12/05 16:14:52;;;;;;;16.65;12.55;;;;;;;2.63;100.00;100381.09;5029297;28;20065;-85
2021/12/05 16:17:24;;;;;;;21.08;14.82;;;;;;;2.64;100.00;100388.97;5042398;28;20040;-84
2021/12/05 16:20:17;;;;;;;17.25;12.10;;;;;;;2.65;100.00;100389.81;5027195;28;20033;-86
2021/12/05 16:23:04;;;;;;;18.17;11.20;;;;;;;2.65;100.00;100395.06;5028153;28;20033;-84
2021/12/05 16:25:29;;;;;;;14.10;11.18;;;;;;;2.64;100.00;100403.88;5027770;28;20025;-86
2021/12/05 16:28:01;;;;;;;16.58;11.57;;;;;;;2.64;100.00;100407.34;5030193;28;20032;-85
2021/12/05 16:30:31;;;;;;;15.32;11.63;;;;;;;2.66;100.00;100409.94;5045526;28;20029;-86
2021/12/05 16:32:58;;;;;;;16.88;12.63;;;;;;;2.63;100.00;100413.47;5047496;28;20025;-87
2021/12/05 16:35:28;;;;;;;33.90;21.70;;;;;;;2.64;100.00;100417.84;5046565;28;20486;-85